Airport View

Enter AWOS ICAO identifier for current METAR.

ex. KFNL

KPDC 030002Z AUTO 22009KT 10SM CLR 33/16 A2974 RMK AO2 T03300159

3 Jun 2020 00:01

Frequency: 119.925

Phone: 608-326-9122

Other Area AWOS: KOVS - KDEH - KY51 - KPVB

TAF KDBQ 022336Z 0300/0324 23013G22KT P6SM SCT120 FM030200 23011KT P6SM BKN250 FM030430 VRB20G40KT 5SM -TSRA OVC035CB FM030600 VRB04KT P6SM BKN120 FM031000 34010KT P6SM SCT025 BKN040